Time;durP1;ratioP1;P1;durP2;ratioP2;P2;SDS_P1;SDS_P2;PMS_P1;PMS_P2;Temp;Humidity;BMP_temperature;BMP_pressure;BME280_temperature;BME280_humidity;BME280_pressure;Samples;Min_cycle;Max_cycle;Signal;HPM_P1;HPM_P2
2023/10/18 00:02:00;;;;;;;29.73;19.77;;;;;;;;;;4973527;28;20481;-74
2023/10/18 00:04:28;;;;;;;33.53;19.80;;;;;;;;;;4973656;28;20453;-74
2023/10/18 00:06:56;;;;;;;27.77;18.20;;;;;;;;;;4973947;28;20506;-74
2023/10/18 00:09:45;;;;;;;33.90;19.30;;;;;;;;;;4973595;28;20959;-74
2023/10/18 00:12:16;;;;;;;34.93;21.27;;;;;;;;;;4956301;28;20488;-74
2023/10/18 00:14:46;;;;;;;31.60;18.63;;;;;;;;;;4973707;28;20456;-74
2023/10/18 00:17:13;;;;;;;25.40;16.80;;;;;;;;;;4973813;28;20551;-74
2023/10/18 00:19:41;;;;;;;29.23;18.40;;;;;;;;;;4973609;28;20511;-74
2023/10/18 00:22:10;;;;;;;34.10;18.87;;;;;;;;;;4973676;28;20476;-74
2023/10/18 00:24:37;;;;;;;22.43;16.93;;;;;;;;;;4973818;28;20487;-74
2023/10/18 00:27:05;;;;;;;27.70;19.50;;;;;;;;;;4973378;28;20461;-74
2023/10/18 00:29:35;;;;;;;25.00;16.83;;;;;;;;;;4973018;28;20511;-74
2023/10/18 00:32:03;;;;;;;33.90;19.87;;;;;;;;;;4973774;28;20473;-74
2023/10/18 00:34:30;;;;;;;31.10;19.70;;;;;;;;;;4973135;28;20460;-74
2023/10/18 00:36:58;;;;;;;35.07;20.93;;;;;;;;;;4965575;28;20540;-74
2023/10/18 00:39:29;;;;;;;41.73;26.30;;;;;;;;;;4973029;28;20452;-74
2023/10/18 00:42:23;;;;;;;33.30;21.20;;;;;;;;;;4973195;28;20504;-74
2023/10/18 00:44:54;;;;;;;29.53;17.43;;;;;;;;;;4973076;28;20558;-74
2023/10/18 00:47:22;;;;;;;34.63;23.90;;;;;;;;;;4973246;28;20464;-74
2023/10/18 00:49:52;;;;;;;34.50;20.63;;;;;;;;;;4972911;28;20496;-74
2023/10/18 00:52:20;;;;;;;36.50;23.00;;;;;;;;;;4973551;28;20488;-74
2023/10/18 00:54:48;;;;;;;37.40;23.13;;;;;;;;;;4972885;28;20460;-74
2023/10/18 00:57:19;;;;;;;34.90;22.03;;;;;;;;;;4972793;28;20461;-74
2023/10/18 00:59:49;;;;;;;34.73;22.43;;;;;;;;;;4972940;28;20548;-74
2023/10/18 01:02:19;;;;;;;33.33;23.30;;;;;;;;;;4972933;28;20504;-74
2023/10/18 01:04:52;;;;;;;35.43;23.10;;;;;;;;;;4972640;28;20834;-74
2023/10/18 01:07:20;;;;;;;35.37;20.13;;;;;;;;;;4955392;28;20464;-74
2023/10/18 01:09:49;;;;;;;34.87;21.37;;;;;;;;;;4972608;28;21064;-74
2023/10/18 01:12:17;;;;;;;39.73;23.10;;;;;;;;;;4972957;28;20477;-74
2023/10/18 01:14:45;;;;;;;31.73;18.80;;;;;;;;;;4972661;28;20461;-74
2023/10/18 01:17:15;;;;;;;36.87;23.33;;;;;;;;;;4972664;28;20464;-74
2023/10/18 01:19:43;;;;;;;36.33;22.80;;;;;;;;;;4972434;28;20511;-74
2023/10/18 01:22:11;;;;;;;39.27;24.73;;;;;;;;;;4972635;28;20568;-74
2023/10/18 01:24:39;;;;;;;35.03;22.07;;;;;;;;;;4972872;28;20467;-74
2023/10/18 01:27:08;;;;;;;36.63;21.87;;;;;;;;;;4972654;28;20930;-74
2023/10/18 01:29:36;;;;;;;27.97;16.90;;;;;;;;;;4972306;28;20504;-74
2023/10/18 01:32:05;;;;;;;26.50;16.80;;;;;;;;;;4972351;28;20861;-73
2023/10/18 01:34:32;;;;;;;29.10;18.77;;;;;;;;;;4972272;28;20452;-74
2023/10/18 01:36:59;;;;;;;27.37;19.40;;;;;;;;;;4972275;28;20463;-74
2023/10/18 01:39:29;;;;;;;32.10;20.60;;;;;;;;;;4972109;28;20448;-74
2023/10/18 01:42:00;;;;;;;28.23;20.10;;;;;;;;;;4972235;28;21032;-74
2023/10/18 01:44:31;;;;;;;31.67;18.10;;;;;;;;;;4972292;28;20496;-74
2023/10/18 01:47:01;;;;;;;31.10;19.93;;;;;;;;;;4964646;28;20453;-74
2023/10/18 01:49:29;;;;;;;33.43;19.20;;;;;;;;;;4972069;28;20485;-73
2023/10/18 01:51:57;;;;;;;29.60;19.03;;;;;;;;;;4972181;28;20484;-74
2023/10/18 01:54:26;;;;;;;26.90;20.07;;;;;;;;;;4971920;28;20942;-74
2023/10/18 01:56:54;;;;;;;40.07;20.97;;;;;;;;;;4972236;28;20457;-74
2023/10/18 01:59:27;;;;;;;28.03;17.70;;;;;;;;;;4972068;28;20456;-74
2023/10/18 02:01:56;;;;;;;32.50;19.40;;;;;;;;;;4971810;28;20485;-74
2023/10/18 02:04:27;;;;;;;28.40;17.87;;;;;;;;;;4971956;28;20460;-74
2023/10/18 02:06:57;;;;;;;24.83;17.53;;;;;;;;;;4971935;28;20806;-74
2023/10/18 02:09:25;;;;;;;33.40;19.67;;;;;;;;;;4971983;28;20520;-74
2023/10/18 02:11:52;;;;;;;31.07;20.10;;;;;;;;;;4971919;28;20528;-74
2023/10/18 02:14:19;;;;;;;30.33;19.57;;;;;;;;;;4971946;28;20859;-74
2023/10/18 02:16:48;;;;;;;34.57;17.93;;;;;;;;;;4971559;28;20453;-74
2023/10/18 02:19:21;;;;;;;27.57;19.80;;;;;;;;;;4971869;28;20457;-74
2023/10/18 02:21:50;;;;;;;42.20;22.47;;;;;;;;;;4971326;28;20548;-74
2023/10/18 02:24:17;;;;;;;31.70;18.77;;;;;;;;;;4972062;28;20463;-74
2023/10/18 02:26:57;;;;;;;33.87;21.10;;;;;;;;;;4971748;28;20463;-74
2023/10/18 02:29:25;;;;;;;28.13;18.23;;;;;;;;;;4971624;28;20492;-74
2023/10/18 02:31:57;;;;;;;26.23;16.67;;;;;;;;;;4971647;28;20869;-74
2023/10/18 02:34:25;;;;;;;26.13;18.50;;;;;;;;;;4971708;28;21070;-74
2023/10/18 02:36:55;;;;;;;29.07;16.80;;;;;;;;;;4971708;28;20874;-74
2023/10/18 02:39:27;;;;;;;31.83;19.40;;;;;;;;;;4971264;28;20870;-74
2023/10/18 02:41:56;;;;;;;30.93;19.53;;;;;;;;;;4971048;28;20986;-74
2023/10/18 02:44:23;;;;;;;34.83;19.77;;;;;;;;;;4971265;28;20469;-74
2023/10/18 02:46:52;;;;;;;26.37;16.47;;;;;;;;;;4971432;28;20457;-74
2023/10/18 02:49:23;;;;;;;31.70;18.80;;;;;;;;;;4971214;28;20493;-73
2023/10/18 02:51:50;;;;;;;28.87;18.07;;;;;;;;;;4971517;28;20512;-74
2023/10/18 02:54:22;;;;;;;30.17;19.43;;;;;;;;;;4971052;28;20538;-74
2023/10/18 02:56:55;;;;;;;26.57;19.70;;;;;;;;;;4971191;28;20967;-74
2023/10/18 02:59:26;;;;;;;37.77;22.90;;;;;;;;;;4971009;28;20958;-74
2023/10/18 03:01:55;;;;;;;39.07;20.90;;;;;;;;;;4971347;28;20512;-74
2023/10/18 03:04:26;;;;;;;32.77;17.27;;;;;;;;;;4970992;28;20497;-74
2023/10/18 03:06:54;;;;;;;35.47;20.13;;;;;;;;;;4971451;28;20457;-74
2023/10/18 03:12:13;;;;;;;32.77;20.47;;;;;;;;;;4963277;28;20468;-74
2023/10/18 03:14:41;;;;;;;34.47;20.00;;;;;;;;;;4971477;28;20518;-74
2023/10/18 03:17:18;;;;;;;28.93;16.80;;;;;;;;;;4971187;28;20451;-74
2023/10/18 03:19:49;;;;;;;32.60;18.10;;;;;;;;;;4970791;28;20452;-74
2023/10/18 03:22:19;;;;;;;31.37;18.07;;;;;;;;;;4970903;28;20554;-74
2023/10/18 03:24:47;;;;;;;35.27;20.33;;;;;;;;;;4970573;28;20506;-74
2023/10/18 03:27:18;;;;;;;33.33;21.27;;;;;;;;;;4971192;28;20463;-74
2023/10/18 03:29:48;;;;;;;38.67;22.10;;;;;;;;;;4973302;28;20489;-74
2023/10/18 03:32:20;;;;;;;33.63;20.53;;;;;;;;;;4974341;28;20505;-74
2023/10/18 03:34:52;;;;;;;38.47;22.30;;;;;;;;;;4974234;28;20457;-74
2023/10/18 03:37:20;;;;;;;35.33;21.37;;;;;;;;;;4974309;28;20460;-74
2023/10/18 03:39:49;;;;;;;37.93;22.40;;;;;;;;;;4973939;28;20483;-74
2023/10/18 03:42:30;;;;;;;32.17;19.80;;;;;;;;;;4973988;28;20512;-74
2023/10/18 03:44:59;;;;;;;33.27;22.23;;;;;;;;;;4973939;28;20456;-74
2023/10/18 03:47:28;;;;;;;39.37;24.47;;;;;;;;;;4973950;28;20465;-74
2023/10/18 03:49:58;;;;;;;45.97;25.47;;;;;;;;;;4974123;28;21029;-74
2023/10/18 03:52:29;;;;;;;44.00;23.20;;;;;;;;;;4973942;28;20487;-74
2023/10/18 03:55:06;;;;;;;38.50;22.80;;;;;;;;;;4973864;28;20456;-74
2023/10/18 03:57:38;;;;;;;40.83;23.87;;;;;;;;;;4973649;28;20551;-74
2023/10/18 04:00:28;;;;;;;50.73;27.47;;;;;;;;;;4973903;28;21108;-74
2023/10/18 04:02:56;;;;;;;35.20;20.47;;;;;;;;;;4973707;28;20463;-74
2023/10/18 04:05:37;;;;;;;40.00;23.50;;;;;;;;;;4973793;28;20469;-74
2023/10/18 04:08:06;;;;;;;41.57;23.47;;;;;;;;;;4966442;28;20881;-74
2023/10/18 04:10:35;;;;;;;37.87;21.77;;;;;;;;;;5040452;28;21009;-74
2023/10/18 04:13:03;;;;;;;38.30;23.57;;;;;;;;;;4973893;28;20810;-74
2023/10/18 04:15:37;;;;;;;37.20;21.73;;;;;;;;;;4973494;28;20502;-74
2023/10/18 04:18:11;;;;;;;37.63;21.30;;;;;;;;;;4958493;28;20449;-74
2023/10/18 04:20:46;;;;;;;40.63;23.80;;;;;;;;;;4973525;28;20854;-73
2023/10/18 04:23:14;;;;;;;38.87;21.17;;;;;;;;;;4973732;28;20488;-74
2023/10/18 04:25:41;;;;;;;29.77;18.47;;;;;;;;;;4973829;28;20542;-74
2023/10/18 04:28:10;;;;;;;34.60;19.60;;;;;;;;;;4973655;28;20453;-74
2023/10/18 04:30:38;;;;;;;36.73;20.93;;;;;;;;;;4972924;28;20505;-74
2023/10/18 04:33:24;;;;;;;36.30;21.03;;;;;;;;;;4974118;28;20469;-74
2023/10/18 04:35:58;;;;;;;42.93;20.47;;;;;;;;;;4973464;28;20544;-74
2023/10/18 04:38:30;;;;;;;32.40;21.00;;;;;;;;;;4973636;28;20477;-74
2023/10/18 04:41:04;;;;;;;32.80;20.77;;;;;;;;;;4972837;28;21050;-74
2023/10/18 04:43:33;;;;;;;28.10;17.37;;;;;;;;;;4973012;28;20510;-74
2023/10/18 04:46:07;;;;;;;38.37;20.90;;;;;;;;;;4973102;28;20514;-74
2023/10/18 04:51:28;;;;;;;34.90;21.73;;;;;;;;;;4972886;28;20859;-74
2023/10/18 04:53:57;;;;;;;38.10;22.47;;;;;;;;;;4972946;28;20469;-74
2023/10/18 04:56:29;;;;;;;32.97;18.93;;;;;;;;;;4972821;28;20465;-74
2023/10/18 04:58:59;;;;;;;36.03;21.33;;;;;;;;;;4973109;28;20963;-73
2023/10/18 05:01:32;;;;;;;44.10;18.73;;;;;;;;;;4972985;28;20473;-74
2023/10/18 05:04:01;;;;;;;35.60;18.80;;;;;;;;;;4973071;28;20982;-74
2023/10/18 05:06:34;;;;;;;23.87;16.83;;;;;;;;;;4972903;28;20499;-74
2023/10/18 05:09:05;;;;;;;28.30;17.10;;;;;;;;;;4965948;28;20873;-74
2023/10/18 05:11:40;;;;;;;26.40;17.40;;;;;;;;;;4972869;28;20527;-74
2023/10/18 05:14:18;;;;;;;31.53;18.90;;;;;;;;;;4965884;28;21036;-74
2023/10/18 05:16:46;;;;;;;31.43;19.83;;;;;;;;;;4972958;28;20468;-74
2023/10/18 05:19:14;;;;;;;30.80;20.40;;;;;;;;;;4972274;28;20449;-74
2023/10/18 05:21:46;;;;;;;33.77;21.03;;;;;;;;;;4972723;28;20476;-74
2023/10/18 05:24:21;;;;;;;31.20;19.50;;;;;;;;;;5010180;28;20471;-74
2023/10/18 05:26:54;;;;;;;30.63;19.60;;;;;;;;;;4971115;28;20492;-74
2023/10/18 05:29:22;;;;;;;26.40;17.20;;;;;;;;;;4970675;28;20938;-74
2023/10/18 05:32:05;;;;;;;30.63;19.30;;;;;;;;;;4972025;28;20485;-74
2023/10/18 05:37:15;;;;;;;32.50;20.77;;;;;;;;;;4950595;28;20449;-74
2023/10/18 05:40:41;;;;;;;39.63;18.63;;;;;;;;;;4970796;28;20900;-74
2023/10/18 05:42:38;;;;;;;33.93;20.23;;;;;;;;;;4970443;28;20481;-74
2023/10/18 05:45:06;;;;;;;34.77;19.80;;;;;;;;;;4971222;28;20555;-74
2023/10/18 05:47:34;;;;;;;35.33;19.67;;;;;;;;;;4970388;28;20468;-74
2023/10/18 05:50:01;;;;;;;27.93;17.47;;;;;;;;;;4970743;28;21034;-74
2023/10/18 05:52:37;;;;;;;37.23;18.40;;;;;;;;;;4969798;28;20504;-74
2023/10/18 05:55:09;;;;;;;35.63;20.80;;;;;;;;;;4963655;28;20946;-74
2023/10/18 05:57:37;;;;;;;30.13;18.03;;;;;;;;;;4970800;28;20497;-74
2023/10/18 06:00:16;;;;;;;33.70;18.57;;;;;;;;;;4970787;28;21000;-74
2023/10/18 06:02:43;;;;;;;27.13;15.37;;;;;;;;;;4970506;28;20487;-74
2023/10/18 06:05:10;;;;;;;26.93;17.63;;;;;;;;;;4970750;28;20949;-74
2023/10/18 06:07:38;;;;;;;33.40;21.10;;;;;;;;;;4970831;28;20488;-74
2023/10/18 06:10:13;;;;;;;32.43;18.23;;;;;;;;;;4970430;28;20857;-74
2023/10/18 06:12:46;;;;;;;37.70;16.70;;;;;;;;;;4970741;28;20890;-74
2023/10/18 06:15:14;;;;;;;33.07;17.30;;;;;;;;;;4970178;28;20495;-74
2023/10/18 06:17:47;;;;;;;24.20;14.97;;;;;;;;;;4970379;28;20463;-74
2023/10/18 06:20:23;;;;;;;24.27;15.93;;;;;;;;;;4970130;28;20453;-74
2023/10/18 06:22:53;;;;;;;22.20;16.07;;;;;;;;;;4954624;28;20453;-74
2023/10/18 06:25:26;;;;;;;24.47;15.53;;;;;;;;;;4970191;28;20564;-74
2023/10/18 06:27:54;;;;;;;17.00;12.70;;;;;;;;;;4970237;28;20559;-74
2023/10/18 06:30:24;;;;;;;18.73;11.53;;;;;;;;;;4970373;28;20556;-75
2023/10/18 06:32:53;;;;;;;15.17;12.37;;;;;;;;;;4970567;28;20480;-75
2023/10/18 06:35:26;;;;;;;16.67;11.50;;;;;;;;;;4970389;28;20455;-75
2023/10/18 06:37:55;;;;;;;16.83;11.23;;;;;;;;;;4970777;28;21003;-75
2023/10/18 06:40:22;;;;;;;16.43;11.43;;;;;;;;;;4970111;28;20522;-75
2023/10/18 06:42:50;;;;;;;17.67;12.30;;;;;;;;;;4970368;28;20456;-75
2023/10/18 06:45:19;;;;;;;23.90;11.53;;;;;;;;;;4970221;28;20463;-75
2023/10/18 06:47:47;;;;;;;14.60;10.27;;;;;;;;;;4970448;28;20544;-75
2023/10/18 06:50:19;;;;;;;13.60;11.47;;;;;;;;;;4969781;28;20497;-76
2023/10/18 06:52:52;;;;;;;16.57;12.43;;;;;;;;;;4969889;28;20492;-74
2023/10/18 06:55:21;;;;;;;13.83;10.53;;;;;;;;;;4970017;28;20456;-75
2023/10/18 06:57:49;;;;;;;18.17;11.13;;;;;;;;;;4970032;28;20500;-75
2023/10/18 07:00:17;;;;;;;18.50;13.00;;;;;;;;;;4969926;28;20509;-75
2023/10/18 07:02:45;;;;;;;23.13;15.03;;;;;;;;;;4970463;28;20537;-74
2023/10/18 07:05:13;;;;;;;21.40;15.50;;;;;;;;;;4973428;28;20460;-74
2023/10/18 07:07:42;;;;;;;18.60;13.10;;;;;;;;;;4973599;28;20966;-75
2023/10/18 07:10:20;;;;;;;20.27;14.20;;;;;;;;;;4973341;28;20507;-75
2023/10/18 07:12:55;;;;;;;18.43;13.93;;;;;;;;;;4973541;28;20459;-74
2023/10/18 07:15:23;;;;;;;16.50;13.30;;;;;;;;;;4973016;28;20993;-75
2023/10/18 07:17:52;;;;;;;21.37;14.23;;;;;;;;;;4969944;28;20543;-75
2023/10/18 07:20:21;;;;;;;22.37;15.70;;;;;;;;;;4971762;28;20874;-75
2023/10/18 07:22:54;;;;;;;17.77;13.57;;;;;;;;;;4972304;28;20552;-74
2023/10/18 07:25:26;;;;;;;21.50;14.20;;;;;;;;;;4971949;28;20462;-74
2023/10/18 07:27:56;;;;;;;23.53;15.67;;;;;;;;;;4971724;28;20971;-74
2023/10/18 07:30:36;;;;;;;27.03;15.70;;;;;;;;;;4971358;28;21002;-74
2023/10/18 07:33:04;;;;;;;25.03;15.27;;;;;;;;;;4964465;28;20464;-74
2023/10/18 07:35:31;;;;;;;20.03;14.30;;;;;;;;;;4971479;28;20452;-74
2023/10/18 07:37:59;;;;;;;19.13;13.70;;;;;;;;;;4971595;28;20500;-74
2023/10/18 07:40:33;;;;;;;20.20;14.87;;;;;;;;;;4970963;28;20464;-74
2023/10/18 07:43:12;;;;;;;22.63;15.60;;;;;;;;;;4997548;28;20470;-74
2023/10/18 07:45:40;;;;;;;17.93;13.40;;;;;;;;;;4971683;28;20522;-74
2023/10/18 07:48:11;;;;;;;14.57;11.50;;;;;;;;;;4971652;28;20460;-74
2023/10/18 07:50:49;;;;;;;13.80;10.13;;;;;;;;;;4971025;28;20532;-74
2023/10/18 07:53:20;;;;;;;12.30;10.20;;;;;;;;;;4971474;28;20483;-75
2023/10/18 07:55:48;;;;;;;13.30;10.30;;;;;;;;;;4971545;28;20476;-75
2023/10/18 07:58:22;;;;;;;14.50;9.50;;;;;;;;;;4971103;28;20457;-75
2023/10/18 08:01:12;;;;;;;12.43;9.17;;;;;;;;;;4970850;28;20477;-74
2023/10/18 08:03:42;;;;;;;13.03;10.83;;;;;;;;;;4971699;28;20493;-74
2023/10/18 08:06:16;;;;;;;13.40;10.00;;;;;;;;;;4971795;28;20469;-75
2023/10/18 08:08:46;;;;;;;16.20;12.20;;;;;;;;;;4970985;28;20829;-75
2023/10/18 08:11:14;;;;;;;14.20;11.13;;;;;;;;;;4971156;28;20515;-75
2023/10/18 08:13:46;;;;;;;16.67;9.20;;;;;;;;;;4971139;28;20458;-74
2023/10/18 08:16:19;;;;;;;13.43;10.53;;;;;;;;;;4970393;28;20461;-75
2023/10/18 08:18:52;;;;;;;14.50;10.87;;;;;;;;;;4971185;28;20510;-75
2023/10/18 08:21:27;;;;;;;13.20;10.30;;;;;;;;;;4971054;28;20523;-75
2023/10/18 08:23:56;;;;;;;12.50;9.90;;;;;;;;;;4970807;28;20959;-74
2023/10/18 08:26:26;;;;;;;12.00;10.43;;;;;;;;;;4970798;28;20944;-74
2023/10/18 08:28:55;;;;;;;13.33;11.00;;;;;;;;;;4970777;28;20574;-74
2023/10/18 08:31:33;;;;;;;14.60;9.83;;;;;;;;;;4969714;28;20505;-75
2023/10/18 08:34:05;;;;;;;13.37;10.10;;;;;;;;;;4970720;28;20453;-74
2023/10/18 08:36:32;;;;;;;17.17;10.67;;;;;;;;;;4970566;28;20517;-74
2023/10/18 08:39:01;;;;;;;14.47;11.43;;;;;;;;;;4970402;28;20513;-74
2023/10/18 08:41:32;;;;;;;12.67;10.57;;;;;;;;;;4970572;28;20504;-74
2023/10/18 08:44:15;;;;;;;15.73;11.07;;;;;;;;;;4962795;28;20484;-75
2023/10/18 08:46:51;;;;;;;12.10;9.50;;;;;;;;;;4970476;28;20461;-74
2023/10/18 08:49:21;;;;;;;11.10;8.40;;;;;;;;;;4970767;28;20456;-74
2023/10/18 08:51:54;;;;;;;10.90;9.80;;;;;;;;;;4971539;28;21015;-75
2023/10/18 08:54:22;;;;;;;11.67;9.77;;;;;;;;;;4970923;28;20476;-74
2023/10/18 08:56:51;;;;;;;11.90;9.03;;;;;;;;;;4971790;28;20445;-74
2023/10/18 08:59:20;;;;;;;13.53;9.20;;;;;;;;;;4971693;28;20480;-74
2023/10/18 09:02:12;;;;;;;12.93;10.40;;;;;;;;;;4971376;28;20473;-75
2023/10/18 09:04:38;;;;;;;12.83;8.93;;;;;;;;;;4971698;28;20807;-75
2023/10/18 09:07:18;;;;;;;9.93;8.87;;;;;;;;;;4971639;28;20511;-75
2023/10/18 09:09:52;;;;;;;10.90;9.33;;;;;;;;;;4971487;28;20510;-75
2023/10/18 09:12:31;;;;;;;10.60;8.93;;;;;;;;;;4971195;28;20550;-74
2023/10/18 09:14:59;;;;;;;9.83;8.33;;;;;;;;;;4971610;28;20499;-73
2023/10/18 09:17:26;;;;;;;10.53;8.43;;;;;;;;;;4971718;28;20555;-75
2023/10/18 09:20:00;;;;;;;11.27;9.10;;;;;;;;;;4971667;28;20461;-75
2023/10/18 09:22:29;;;;;;;9.33;8.33;;;;;;;;;;4971348;28;20481;-75
2023/10/18 09:24:56;;;;;;;16.63;9.77;;;;;;;;;;4971564;28;20491;-75
2023/10/18 09:27:23;;;;;;;9.40;8.50;;;;;;;;;;4970074;28;20932;-75
2023/10/18 09:29:52;;;;;;;17.50;9.60;;;;;;;;;;4971141;28;20508;-75
2023/10/18 09:32:33;;;;;;;14.87;9.40;;;;;;;;;;4971347;28;20497;-76
2023/10/18 09:35:06;;;;;;;14.67;9.93;;;;;;;;;;4971383;28;20529;-75
2023/10/18 09:37:35;;;;;;;10.93;8.57;;;;;;;;;;4971645;28;20465;-75
2023/10/18 09:40:03;;;;;;;14.00;8.97;;;;;;;;;;4971578;28;20459;-77
2023/10/18 09:42:30;;;;;;;10.53;8.60;;;;;;;;;;4971435;28;20484;-76
2023/10/18 09:44:59;;;;;;;12.40;9.63;;;;;;;;;;4971135;28;20477;-74
2023/10/18 09:47:29;;;;;;;12.63;8.73;;;;;;;;;;5015086;28;20518;-76
2023/10/18 09:49:56;;;;;;;12.30;9.03;;;;;;;;;;4971342;28;20482;-74
2023/10/18 09:52:25;;;;;;;10.00;8.20;;;;;;;;;;4970566;28;20500;-74
2023/10/18 09:54:59;;;;;;;15.10;8.53;;;;;;;;;;4970999;28;20465;-74
2023/10/18 09:57:35;;;;;;;11.77;9.40;;;;;;;;;;4970661;28;20973;-74
2023/10/18 10:00:11;;;;;;;9.70;7.83;;;;;;;;;;4970721;28;20464;-75
2023/10/18 10:02:43;;;;;;;11.50;9.20;;;;;;;;;;4970611;28;20493;-74
2023/10/18 10:05:24;;;;;;;9.43;7.83;;;;;;;;;;4970797;28;20888;-74
2023/10/18 10:07:52;;;;;;;14.47;9.03;;;;;;;;;;4995563;28;20473;-73
2023/10/18 10:10:24;;;;;;;10.40;8.57;;;;;;;;;;4971334;28;20464;-76
2023/10/18 10:12:57;;;;;;;8.90;7.23;;;;;;;;;;4970528;28;20496;-75
2023/10/18 10:15:28;;;;;;;8.50;7.27;;;;;;;;;;4970693;28;20542;-74
2023/10/18 10:18:00;;;;;;;9.30;7.37;;;;;;;;;;4971053;28;20484;-74
2023/10/18 10:20:32;;;;;;;8.83;7.33;;;;;;;;;;4970937;28;20515;-74
2023/10/18 10:23:02;;;;;;;10.00;6.80;;;;;;;;;;4971307;28;20449;-74
2023/10/18 10:25:32;;;;;;;7.43;6.73;;;;;;;;;;4971475;28;20457;-74
2023/10/18 10:28:13;;;;;;;9.20;8.30;;;;;;;;;;4970445;28;20499;-74
2023/10/18 10:30:43;;;;;;;9.70;8.50;;;;;;;;;;4970079;28;20982;-75
2023/10/18 10:33:13;;;;;;;9.73;7.57;;;;;;;;;;4968839;28;20497;-76
2023/10/18 10:35:45;;;;;;;10.07;7.70;;;;;;;;;;4970098;28;20962;-76
2023/10/18 10:38:18;;;;;;;9.47;8.10;;;;;;;;;;4968885;28;20491;-77
2023/10/18 10:40:49;;;;;;;10.53;7.73;;;;;;;;;;4969946;28;20480;-76
2023/10/18 10:43:19;;;;;;;10.07;7.93;;;;;;;;;;4966179;28;20756;-77
2023/10/18 10:45:54;;;;;;;10.50;7.70;;;;;;;;;;4968756;28;20952;-76
2023/10/18 10:48:32;;;;;;;10.43;7.77;;;;;;;;;;4968864;28;20529;-76
2023/10/18 10:51:06;;;;;;;10.07;9.00;;;;;;;;;;4969614;28;20477;-76
2023/10/18 10:53:33;;;;;;;9.70;8.33;;;;;;;;;;4969975;28;20549;-77
2023/10/18 10:56:16;;;;;;;8.83;7.87;;;;;;;;;;4970044;28;20474;-77
2023/10/18 10:58:44;;;;;;;8.73;7.77;;;;;;;;;;4968730;28;20808;-76
2023/10/18 11:01:29;;;;;;;9.37;7.70;;;;;;;;;;4970865;28;20488;-76
2023/10/18 11:04:10;;;;;;;14.30;9.77;;;;;;;;;;4970450;28;20457;-77
2023/10/18 11:06:43;;;;;;;11.77;7.77;;;;;;;;;;4969688;28;20460;-76
2023/10/18 11:09:15;;;;;;;9.87;7.93;;;;;;;;;;4969751;28;20467;-77
2023/10/18 11:11:45;;;;;;;9.50;7.10;;;;;;;;;;4970314;28;20501;-77
2023/10/18 11:14:18;;;;;;;12.97;8.90;;;;;;;;;;4969783;28;20471;-74
2023/10/18 11:16:46;;;;;;;11.40;8.27;;;;;;;;;;4969939;28;20621;-77
2023/10/18 11:19:18;;;;;;;10.10;8.80;;;;;;;;;;4969629;28;20461;-76
2023/10/18 11:21:46;;;;;;;10.63;7.60;;;;;;;;;;4969759;28;20558;-76
2023/10/18 11:24:13;;;;;;;12.10;8.93;;;;;;;;;;4952593;28;20461;-76
2023/10/18 11:26:41;;;;;;;11.10;9.13;;;;;;;;;;4969772;28;20453;-76
2023/10/18 11:29:09;;;;;;;11.43;8.70;;;;;;;;;;4969852;28;20513;-76
2023/10/18 11:31:42;;;;;;;11.30;8.43;;;;;;;;;;4978360;28;20554;-76
2023/10/18 11:34:14;;;;;;;10.17;7.40;;;;;;;;;;4969970;28;20892;-77
2023/10/18 11:36:43;;;;;;;9.23;7.33;;;;;;;;;;4970023;28;20891;-76
2023/10/18 11:39:20;;;;;;;9.03;8.10;;;;;;;;;;4969861;28;20892;-76
2023/10/18 11:41:53;;;;;;;10.30;7.90;;;;;;;;;;4969507;28;20892;-76
2023/10/18 11:44:30;;;;;;;9.87;8.27;;;;;;;;;;4969687;28;20476;-76
2023/10/18 11:47:01;;;;;;;11.60;9.07;;;;;;;;;;4969867;28;20468;-76
2023/10/18 11:49:35;;;;;;;11.33;9.50;;;;;;;;;;4970225;28;20464;-77
2023/10/18 11:52:04;;;;;;;9.47;8.23;;;;;;;;;;4972649;28;20553;-75
2023/10/18 11:54:33;;;;;;;9.20;8.00;;;;;;;;;;4972577;28;20557;-76
2023/10/18 11:57:01;;;;;;;11.40;9.30;;;;;;;;;;4972867;28;20459;-76
2023/10/18 11:59:29;;;;;;;8.50;7.50;;;;;;;;;;4972473;28;20456;-75
2023/10/18 12:01:57;;;;;;;14.80;8.30;;;;;;;;;;4972966;28;20472;-76
2023/10/18 12:04:37;;;;;;;10.13;8.77;;;;;;;;;;4972770;28;20463;-77
2023/10/18 12:07:08;;;;;;;9.10;8.20;;;;;;;;;;4972247;28;20473;-76
2023/10/18 12:09:44;;;;;;;11.20;9.70;;;;;;;;;;4972427;28;20514;-76
2023/10/18 12:12:13;;;;;;;12.80;9.93;;;;;;;;;;4972675;28;20923;-76
2023/10/18 12:14:41;;;;;;;9.70;8.70;;;;;;;;;;4972240;28;20456;-76
2023/10/18 12:17:08;;;;;;;10.20;9.07;;;;;;;;;;4972826;28;20457;-76
2023/10/18 12:19:37;;;;;;;9.27;8.23;;;;;;;;;;4972064;28;20528;-76
2023/10/18 12:22:07;;;;;;;10.50;8.70;;;;;;;;;;4972068;28;20507;-76
2023/10/18 12:24:34;;;;;;;11.57;9.23;;;;;;;;;;4971447;28;20855;-76
2023/10/18 12:27:15;;;;;;;9.23;8.37;;;;;;;;;;4964445;28;20471;-77
2023/10/18 12:29:44;;;;;;;13.30;9.83;;;;;;;;;;4972184;28;20516;-76
2023/10/18 12:32:25;;;;;;;12.67;10.37;;;;;;;;;;4971807;28;20496;-77
2023/10/18 12:34:56;;;;;;;9.83;8.70;;;;;;;;;;4972311;28;20469;-76
2023/10/18 12:37:32;;;;;;;12.30;8.83;;;;;;;;;;4971839;28;20465;-76
2023/10/18 12:40:04;;;;;;;12.53;10.80;;;;;;;;;;4972343;28;20843;-76
2023/10/18 12:42:33;;;;;;;11.57;9.03;;;;;;;;;;4971937;28;20481;-75
2023/10/18 12:45:09;;;;;;;11.70;8.03;;;;;;;;;;4964116;28;20540;-75
2023/10/18 12:47:37;;;;;;;15.07;9.80;;;;;;;;;;4972099;28;20449;-76
2023/10/18 12:50:05;;;;;;;8.97;8.07;;;;;;;;;;4971952;28;20893;-76
2023/10/18 12:52:43;;;;;;;14.93;8.40;;;;;;;;;;4971693;28;20568;-75
2023/10/18 12:57:51;;;;;;;12.87;9.80;;;;;;;;;;4971606;28;20540;-75
2023/10/18 13:00:18;;;;;;;10.90;9.33;;;;;;;;;;4971492;28;20449;-75
2023/10/18 13:02:51;;;;;;;11.60;9.87;;;;;;;;;;4971604;28;20499;-75
2023/10/18 13:05:17;;;;;;;14.27;10.47;;;;;;;;;;4971816;28;20463;-76
2023/10/18 13:07:52;;;;;;;12.53;10.67;;;;;;;;;;4972193;28;20475;-75
2023/10/18 13:10:29;;;;;;;13.83;10.87;;;;;;;;;;4971701;28;20538;-75
2023/10/18 13:13:04;;;;;;;13.83;12.20;;;;;;;;;;4971716;28;20500;-76
2023/10/18 13:15:33;;;;;;;14.33;10.47;;;;;;;;;;4971640;28;20584;-75
2023/10/18 13:18:00;;;;;;;13.20;9.67;;;;;;;;;;4961861;28;20461;-76
2023/10/18 13:20:34;;;;;;;13.40;10.27;;;;;;;;;;4969299;28;20844;-75
2023/10/18 13:23:06;;;;;;;14.13;10.63;;;;;;;;;;4962415;28;20526;-75
2023/10/18 13:25:38;;;;;;;14.60;10.63;;;;;;;;;;4970085;28;21075;-75
2023/10/18 13:28:05;;;;;;;15.50;10.50;;;;;;;;;;4962721;28;20845;-75
2023/10/18 13:30:33;;;;;;;19.47;12.00;;;;;;;;;;4969795;28;20490;-75
2023/10/18 13:33:01;;;;;;;16.40;11.87;;;;;;;;;;4961883;28;20933;-75
2023/10/18 13:35:29;;;;;;;14.27;10.80;;;;;;;;;;4969748;28;20481;-75
2023/10/18 13:37:58;;;;;;;14.53;10.87;;;;;;;;;;4970088;28;20836;-75
2023/10/18 13:40:27;;;;;;;13.33;11.07;;;;;;;;;;4969310;28;20992;-75
2023/10/18 13:42:55;;;;;;;13.30;10.33;;;;;;;;;;4969760;28;20453;-75
2023/10/18 13:45:26;;;;;;;17.30;11.83;;;;;;;;;;4969775;28;20449;-75
2023/10/18 13:47:58;;;;;;;15.10;12.43;;;;;;;;;;4969204;28;20552;-75
2023/10/18 13:50:25;;;;;;;16.50;11.77;;;;;;;;;;4969297;28;20556;-75
2023/10/18 13:52:53;;;;;;;13.73;10.83;;;;;;;;;;4969522;28;20500;-75
2023/10/18 13:55:21;;;;;;;15.90;12.23;;;;;;;;;;4970473;28;20511;-75
2023/10/18 13:57:50;;;;;;;15.17;11.43;;;;;;;;;;4970527;28;20472;-75
2023/10/18 14:00:21;;;;;;;16.30;11.77;;;;;;;;;;4970337;28;20461;-75
2023/10/18 14:02:48;;;;;;;16.20;11.87;;;;;;;;;;4970810;28;20575;-75
2023/10/18 14:05:19;;;;;;;18.47;11.60;;;;;;;;;;4970696;28;20467;-75
2023/10/18 14:07:46;;;;;;;16.13;11.90;;;;;;;;;;4970596;28;20502;-74
2023/10/18 14:10:20;;;;;;;17.23;11.93;;;;;;;;;;4970450;28;20848;-75
2023/10/18 14:12:48;;;;;;;16.17;12.03;;;;;;;;;;4970243;28;20505;-74
2023/10/18 14:15:19;;;;;;;17.07;12.90;;;;;;;;;;4970892;28;20457;-75
2023/10/18 14:17:47;;;;;;;15.13;12.30;;;;;;;;;;4970742;28;20465;-75
2023/10/18 14:20:14;;;;;;;20.17;12.63;;;;;;;;;;4970649;28;20457;-76
2023/10/18 14:22:43;;;;;;;19.67;11.87;;;;;;;;;;4970588;28;20477;-75
2023/10/18 14:25:13;;;;;;;19.63;10.67;;;;;;;;;;4970652;28;20467;-75
2023/10/18 14:27:41;;;;;;;13.87;11.50;;;;;;;;;;4970536;28;20472;-75
2023/10/18 14:30:12;;;;;;;17.53;12.77;;;;;;;;;;4970516;28;20842;-75
2023/10/18 14:32:42;;;;;;;18.17;13.43;;;;;;;;;;4970316;28;20493;-75
2023/10/18 14:35:10;;;;;;;20.83;12.80;;;;;;;;;;4970172;28;20460;-75
2023/10/18 14:37:40;;;;;;;16.90;13.47;;;;;;;;;;4993844;28;20461;-75
2023/10/18 14:40:07;;;;;;;19.63;14.70;;;;;;;;;;4969834;28;20461;-75
2023/10/18 14:42:34;;;;;;;19.93;14.37;;;;;;;;;;4970109;28;20503;-75
2023/10/18 14:45:02;;;;;;;19.90;14.20;;;;;;;;;;4946731;28;20457;-75
2023/10/18 14:47:31;;;;;;;18.73;14.63;;;;;;;;;;4970301;28;20461;-76
2023/10/18 14:50:03;;;;;;;16.10;12.17;;;;;;;;;;4994395;28;20464;-75
2023/10/18 14:52:30;;;;;;;22.63;15.40;;;;;;;;;;4969986;28;20864;-75
2023/10/18 14:54:58;;;;;;;20.03;14.73;;;;;;;;;;4969743;28;20975;-75